createdAt,value
2023-04-23T00:00:47.114Z,22.35
2023-04-23T00:03:15.347Z,23.10
2023-04-23T00:05:44.430Z,23.25
2023-04-23T00:08:11.870Z,23.20
2023-04-23T00:10:39.297Z,21.60
2023-04-23T00:13:06.798Z,20.77
2023-04-23T00:15:34.333Z,20.88
2023-04-23T00:18:01.635Z,19.95
2023-04-23T00:20:29.075Z,21.85
2023-04-23T00:22:56.553Z,22.25
2023-04-23T00:25:23.979Z,23.52
2023-04-23T00:27:51.339Z,22.42
2023-04-23T00:30:19.105Z,23.63
2023-04-23T00:32:46.675Z,22.55
2023-04-23T00:35:14.100Z,21.92
2023-04-23T00:37:41.882Z,21.20
2023-04-23T00:40:09.527Z,21.13
2023-04-23T00:42:37.333Z,20.85
2023-04-23T00:45:06.010Z,21.48
2023-04-23T00:47:33.535Z,21.30
2023-04-23T00:50:01.308Z,21.42
2023-04-23T00:52:29.390Z,22.30
2023-04-23T00:54:57.471Z,21.75
2023-04-23T00:57:26.108Z,21.75
2023-04-23T00:59:55.524Z,23.02
2023-04-23T01:06:41.420Z,22.38
2023-04-23T01:09:09.868Z,22.75
2023-04-23T01:11:39.985Z,23.00
2023-04-23T01:14:07.503Z,22.52
2023-04-23T01:16:35.377Z,23.27
2023-04-23T01:19:03.315Z,23.02
2023-04-23T01:21:31.599Z,22.27
2023-04-23T01:23:59.210Z,22.70
2023-04-23T01:26:26.931Z,23.23
2023-04-23T01:28:54.932Z,22.55
2023-04-23T01:31:23.124Z,23.67
2023-04-23T01:33:55.524Z,22.48
2023-04-23T01:36:27.227Z,23.23
2023-04-23T01:38:54.722Z,23.63
2023-04-23T01:41:22.059Z,23.08
2023-04-23T01:43:49.513Z,23.55
2023-04-23T01:46:17.555Z,23.58
2023-04-23T01:48:45.057Z,22.65
2023-04-23T01:51:12.458Z,23.92
2023-04-23T01:53:39.977Z,24.10
2023-04-23T01:56:09.997Z,24.10
2023-04-23T01:58:38.001Z,24.13
2023-04-23T02:01:05.351Z,25.08
2023-04-23T02:03:34.186Z,25.83
2023-04-23T02:06:01.914Z,27.40
2023-04-23T02:08:29.473Z,27.35
2023-04-23T02:10:58.384Z,26.92
2023-04-23T02:13:25.732Z,28.67
2023-04-23T02:20:11.660Z,28.77
2023-04-23T02:22:40.171Z,30.15
2023-04-23T02:25:08.368Z,29.65
2023-04-23T02:27:36.105Z,30.73
2023-04-23T02:30:03.686Z,30.65
2023-04-23T02:36:49.285Z,29.42
2023-04-23T02:39:16.886Z,31.15
2023-04-23T02:41:44.267Z,31.05
2023-04-23T02:44:11.742Z,31.05
2023-04-23T02:46:39.295Z,31.33
2023-04-23T02:49:06.879Z,30.63
2023-04-23T02:51:34.266Z,30.55
2023-04-23T02:54:04.024Z,30.77
2023-04-23T02:56:31.577Z,28.15
2023-04-23T02:58:58.964Z,29.00
2023-04-23T03:01:27.222Z,29.25
2023-04-23T03:03:55.549Z,28.90
2023-04-23T03:06:23.089Z,29.48
2023-04-23T03:08:50.650Z,29.05
2023-04-23T03:11:17.997Z,29.90
2023-04-23T03:13:45.826Z,30.85
2023-04-23T03:16:13.413Z,28.50
2023-04-23T03:22:59.403Z,28.33
2023-04-23T03:25:27.249Z,28.80
2023-04-23T03:27:54.785Z,28.42
2023-04-23T03:30:22.172Z,28.77
2023-04-23T03:32:50.863Z,29.08
2023-04-23T03:35:18.676Z,29.80
2023-04-23T03:37:48.623Z,28.85
2023-04-23T03:40:16.641Z,28.90
2023-04-23T03:42:47.536Z,28.88
2023-04-23T03:45:17.307Z,28.15
2023-04-23T03:47:45.474Z,27.77
2023-04-23T03:50:13.550Z,28.48
2023-04-23T03:52:43.165Z,29.10
2023-04-23T03:55:16.676Z,27.63
2023-04-23T03:57:46.450Z,29.75
2023-04-23T04:00:27.164Z,26.98
2023-04-23T04:02:54.726Z,26.38
2023-04-23T04:05:23.807Z,26.38
2023-04-23T04:07:54.389Z,25.80
2023-04-23T04:10:22.161Z,26.13
2023-04-23T04:12:49.635Z,25.98
2023-04-23T04:15:19.881Z,26.05
2023-04-23T04:17:47.475Z,26.17
2023-04-23T04:20:14.996Z,25.92
2023-04-23T04:22:42.605Z,27.45
2023-04-23T04:25:10.210Z,27.13
2023-04-23T04:27:37.727Z,26.45
2023-04-23T04:30:05.631Z,27.10
2023-04-23T04:32:33.639Z,26.20
2023-04-23T04:35:01.005Z,26.92
2023-04-23T04:37:28.383Z,27.02
2023-04-23T04:39:55.796Z,28.23
2023-04-23T04:42:23.301Z,29.50
2023-04-23T04:44:51.356Z,29.17
2023-04-23T04:47:19.053Z,28.13
2023-04-23T04:49:46.871Z,27.05
2023-04-23T04:52:14.224Z,28.10
2023-04-23T04:54:42.204Z,28.65
2023-04-23T04:57:11.006Z,27.88
2023-04-23T04:59:38.456Z,27.25
2023-04-23T05:02:05.880Z,25.83
2023-04-23T05:08:51.370Z,25.48
2023-04-23T05:11:20.072Z,25.17
2023-04-23T05:13:47.873Z,25.33
2023-04-23T05:16:15.328Z,24.80
2023-04-23T05:18:43.027Z,24.08
2023-04-23T05:21:10.436Z,24.00
2023-04-23T05:23:37.875Z,24.50
2023-04-23T05:26:05.349Z,24.45
2023-04-23T05:28:32.785Z,23.67
2023-04-23T05:31:00.299Z,24.20
2023-04-23T05:33:33.550Z,24.10
2023-04-23T05:36:08.324Z,24.33
2023-04-23T05:38:35.656Z,25.65
2023-04-23T05:41:03.110Z,24.77
2023-04-23T05:43:30.606Z,22.85
2023-04-23T05:45:58.133Z,23.42
2023-04-23T05:48:25.577Z,23.52
2023-04-23T05:50:53.158Z,22.48
2023-04-23T05:53:20.791Z,22.35
2023-04-23T05:55:48.270Z,22.63
2023-04-23T05:58:15.967Z,23.58
2023-04-23T06:00:43.365Z,22.50
2023-04-23T06:03:11.054Z,22.60
2023-04-23T06:05:38.797Z,21.55
2023-04-23T06:08:06.424Z,22.42
2023-04-23T06:10:33.708Z,21.63
2023-04-23T06:13:01.070Z,22.08
2023-04-23T06:15:28.395Z,20.77
2023-04-23T06:17:55.883Z,20.73
2023-04-23T06:20:23.528Z,21.50
2023-04-23T06:22:50.939Z,21.05
2023-04-23T06:25:18.278Z,20.80
2023-04-23T06:27:45.636Z,21.15
2023-04-23T06:30:25.625Z,20.48
2023-04-23T06:32:53.647Z,21.05
2023-04-23T06:39:29.566Z,20.25
2023-04-23T06:41:58.143Z,21.63
2023-04-23T06:44:35.541Z,21.50
2023-04-23T06:47:04.504Z,20.95
2023-04-23T06:49:31.994Z,20.08
2023-04-23T06:51:59.583Z,20.15
2023-04-23T06:54:27.213Z,20.50
2023-04-23T06:56:54.683Z,20.42
2023-04-23T06:59:22.071Z,19.77
2023-04-23T07:01:53.616Z,20.10
2023-04-23T07:04:21.005Z,19.60
2023-04-23T07:06:48.380Z,19.50
2023-04-23T07:09:15.777Z,19.63
2023-04-23T07:11:43.421Z,19.77
2023-04-23T07:14:10.803Z,18.92
2023-04-23T07:16:38.168Z,18.15
2023-04-23T07:19:05.697Z,18.58
2023-04-23T07:21:33.207Z,18.98
2023-04-23T07:24:03.425Z,18.90
2023-04-23T07:26:30.813Z,18.48
2023-04-23T07:28:58.254Z,18.83
2023-04-23T07:31:25.762Z,18.27
2023-04-23T07:33:53.193Z,17.15
2023-04-23T07:36:20.658Z,16.15
2023-04-23T07:38:48.248Z,15.95
2023-04-23T07:41:15.722Z,16.63
2023-04-23T07:43:43.494Z,16.42
2023-04-23T07:46:10.932Z,16.33
2023-04-23T07:48:38.337Z,21.23
2023-04-23T07:51:06.704Z,16.65
2023-04-23T07:53:34.194Z,14.85
2023-04-23T07:56:01.811Z,13.90
2023-04-23T07:58:29.512Z,14.07
2023-04-23T08:00:57.277Z,14.00
2023-04-23T08:03:25.006Z,13.20
2023-04-23T08:10:11.062Z,12.05
2023-04-23T08:12:38.472Z,12.15
2023-04-23T08:15:06.563Z,11.43
2023-04-23T08:17:39.365Z,11.30
2023-04-23T08:20:07.477Z,11.23
2023-04-23T08:22:34.944Z,10.90
2023-04-23T08:25:02.378Z,10.70
2023-04-23T08:27:30.504Z,10.60
2023-04-23T08:29:57.867Z,9.73
2023-04-23T08:32:30.771Z,9.07
2023-04-23T08:34:58.970Z,8.80
2023-04-23T08:37:30.789Z,10.10
2023-04-23T08:39:59.265Z,8.32
2023-04-23T08:42:52.917Z,8.32
2023-04-23T08:45:20.630Z,8.02
2023-04-23T08:47:48.428Z,8.50
2023-04-23T08:50:17.942Z,8.25
2023-04-23T08:52:51.265Z,8.38
2023-04-23T08:55:19.467Z,8.60
2023-04-23T08:57:47.321Z,8.55
2023-04-23T09:00:16.094Z,8.68
2023-04-23T09:02:44.744Z,8.80
2023-04-23T09:05:12.327Z,8.77
2023-04-23T09:07:39.902Z,8.10
2023-04-23T09:10:08.520Z,7.75
2023-04-23T09:12:36.394Z,7.72
2023-04-23T09:15:10.683Z,7.80
2023-04-23T09:17:44.119Z,7.20
2023-04-23T09:20:12.487Z,7.47
2023-04-23T09:22:47.547Z,7.38
2023-04-23T09:25:19.261Z,6.55
2023-04-23T09:27:47.443Z,6.75
2023-04-23T09:30:15.055Z,6.65
2023-04-23T09:32:43.646Z,6.40
2023-04-23T09:35:11.843Z,6.25
2023-04-23T09:37:42.345Z,6.20
2023-04-23T09:40:10.643Z,5.80
2023-04-23T09:42:38.264Z,5.85
2023-04-23T09:45:05.858Z,5.53
2023-04-23T09:47:34.288Z,5.97
2023-04-23T09:50:02.257Z,6.40
2023-04-23T09:52:32.044Z,6.05
2023-04-23T09:54:59.663Z,5.80
2023-04-23T09:57:27.083Z,6.15
2023-04-23T10:00:07.366Z,6.20
2023-04-23T10:02:46.885Z,6.13
2023-04-23T10:05:25.004Z,5.75
2023-04-23T10:08:00.552Z,5.90
2023-04-23T10:10:27.982Z,6.30
2023-04-23T10:12:56.672Z,6.07
2023-04-23T10:15:26.870Z,5.72
2023-04-23T10:17:55.789Z,5.75
2023-04-23T10:20:24.019Z,6.03
2023-04-23T10:22:53.420Z,5.90
2023-04-23T10:25:20.950Z,5.65
2023-04-23T10:27:54.323Z,6.10
2023-04-23T10:30:23.042Z,6.43
2023-04-23T10:32:51.530Z,5.80
2023-04-23T10:35:19.263Z,5.90
2023-04-23T10:37:48.424Z,5.55
2023-04-23T10:40:17.255Z,6.03
2023-04-23T10:42:45.519Z,5.28
2023-04-23T10:47:47.381Z,5.20
2023-04-23T10:50:37.797Z,5.00
2023-04-23T10:53:06.350Z,5.20
2023-04-23T10:55:33.921Z,5.60
2023-04-23T10:58:02.366Z,6.05
2023-04-23T11:00:32.017Z,5.55
2023-04-23T11:02:59.612Z,5.00
2023-04-23T11:05:29.424Z,5.35
2023-04-23T11:08:18.214Z,5.18
2023-04-23T11:10:57.250Z,6.07
2023-04-23T11:13:26.120Z,5.50
2023-04-23T11:16:12.310Z,5.22
2023-04-23T11:18:58.274Z,5.50
2023-04-23T11:21:51.840Z,5.53
2023-04-23T11:24:19.549Z,5.53
2023-04-23T11:26:48.099Z,5.43
2023-04-23T11:29:16.603Z,5.32
2023-04-23T11:31:58.478Z,5.32
2023-04-23T11:34:29.608Z,5.40
2023-04-23T11:36:59.423Z,5.43
2023-04-23T11:39:27.462Z,5.72
2023-04-23T11:41:55.147Z,5.85
2023-04-23T11:44:22.602Z,5.88
2023-04-23T11:46:50.916Z,5.63
2023-04-23T11:49:19.469Z,5.10
2023-04-23T11:51:47.309Z,5.15
2023-04-23T11:54:15.158Z,4.72
2023-04-23T11:56:43.717Z,5.47
2023-04-23T11:59:11.198Z,5.47
2023-04-23T12:01:45.995Z,5.90
2023-04-23T12:04:14.671Z,5.50
2023-04-23T12:06:42.961Z,5.47
2023-04-23T12:09:11.780Z,5.60
2023-04-23T12:11:39.499Z,5.65
2023-04-23T12:14:08.624Z,5.60
2023-04-23T12:16:38.854Z,5.50
2023-04-23T12:19:08.802Z,5.68
2023-04-23T12:21:36.817Z,5.05
2023-04-23T12:24:05.336Z,5.40
2023-04-23T12:26:32.742Z,5.35
2023-04-23T12:29:00.778Z,5.53
2023-04-23T12:31:28.932Z,5.00
2023-04-23T12:34:03.132Z,5.50
2023-04-23T12:36:31.538Z,5.00
2023-04-23T12:39:17.566Z,4.90
2023-04-23T12:41:44.966Z,5.05
2023-04-23T12:44:12.662Z,5.30
2023-04-23T12:46:40.136Z,4.95
2023-04-23T12:49:07.608Z,5.13
2023-04-23T12:51:34.952Z,4.90
2023-04-23T12:54:02.422Z,5.35
2023-04-23T12:56:29.878Z,5.07
2023-04-23T12:58:57.811Z,5.00
2023-04-23T13:01:25.169Z,4.65
2023-04-23T13:03:52.674Z,5.30
2023-04-23T13:06:20.115Z,5.28
2023-04-23T13:08:47.528Z,5.05
2023-04-23T13:11:14.924Z,5.03
2023-04-23T13:13:42.454Z,5.20
2023-04-23T13:16:09.925Z,5.53
2023-04-23T13:18:37.495Z,5.50
2023-04-23T13:21:05.005Z,5.60
2023-04-23T13:23:32.437Z,5.15
2023-04-23T13:25:59.763Z,5.05
2023-04-23T13:28:27.141Z,4.82
2023-04-23T13:30:54.585Z,5.43
2023-04-23T13:33:22.074Z,5.15
2023-04-23T13:35:49.446Z,5.28
2023-04-23T13:38:17.409Z,5.22
2023-04-23T13:40:44.927Z,5.40
2023-04-23T13:43:12.374Z,4.53
2023-04-23T13:45:39.807Z,5.32
2023-04-23T13:48:08.270Z,5.38
2023-04-23T13:50:35.929Z,5.13
2023-04-23T13:57:35.377Z,5.75
2023-04-23T14:00:02.843Z,5.80
2023-04-23T14:02:31.818Z,5.07
2023-04-23T14:04:59.450Z,4.70
2023-04-23T14:11:34.950Z,5.05
2023-04-23T14:14:02.475Z,5.25
2023-04-23T14:16:29.907Z,4.97
2023-04-23T14:18:57.289Z,5.50
2023-04-23T14:21:24.697Z,5.90
2023-04-23T14:23:55.920Z,5.03
2023-04-23T14:26:40.741Z,5.35
2023-04-23T14:29:25.526Z,5.13
2023-04-23T14:31:53.124Z,5.10
2023-04-23T14:34:21.229Z,5.03
2023-04-23T14:36:49.435Z,5.60
2023-04-23T14:39:17.193Z,4.93
2023-04-23T14:41:44.838Z,5.05
2023-04-23T14:44:12.506Z,4.88
2023-04-23T14:46:40.095Z,5.22
2023-04-23T14:49:07.548Z,5.25
2023-04-23T14:51:34.984Z,5.20
2023-04-23T14:54:02.489Z,5.38
2023-04-23T14:56:29.918Z,5.15
2023-04-23T14:58:57.455Z,4.88
2023-04-23T15:01:25.059Z,5.13
2023-04-23T15:03:53.541Z,5.25
2023-04-23T15:06:21.001Z,4.88
2023-04-23T15:08:48.381Z,4.80
2023-04-23T15:11:15.830Z,5.13
2023-04-23T15:13:43.196Z,4.90
2023-04-23T15:16:26.246Z,5.28
2023-04-23T15:19:03.634Z,4.85
2023-04-23T15:21:31.073Z,4.78
2023-04-23T15:23:58.518Z,4.70
2023-04-23T15:26:26.288Z,5.00
2023-04-23T15:28:53.635Z,4.80
2023-04-23T15:31:20.967Z,4.70
2023-04-23T15:33:48.448Z,4.70
2023-04-23T15:36:15.889Z,5.00
2023-04-23T15:42:51.919Z,4.40
2023-04-23T15:45:19.428Z,4.90
2023-04-23T15:47:46.856Z,4.72
2023-04-23T15:50:14.548Z,5.00
2023-04-23T15:52:41.992Z,5.35
2023-04-23T15:55:09.568Z,4.82
2023-04-23T15:57:36.920Z,4.82
2023-04-23T16:00:05.399Z,4.50
2023-04-23T16:02:39.331Z,4.60
2023-04-23T16:05:07.054Z,4.88
2023-04-23T16:07:34.546Z,4.80
2023-04-23T16:10:02.567Z,4.78
2023-04-23T16:12:29.964Z,4.90
2023-04-23T16:14:57.478Z,5.78
2023-04-23T16:17:27.945Z,5.13
2023-04-23T16:19:55.439Z,5.38
2023-04-23T16:22:22.817Z,5.38
2023-04-23T16:24:50.204Z,5.60
2023-04-23T16:27:17.685Z,5.90
2023-04-23T16:29:45.015Z,5.93
2023-04-23T16:32:12.373Z,5.65
2023-04-23T16:34:39.883Z,5.57
2023-04-23T16:37:07.550Z,5.35
2023-04-23T16:39:35.003Z,5.32
2023-04-23T16:42:02.523Z,5.15
2023-04-23T16:44:30.688Z,5.68
2023-04-23T16:46:59.493Z,5.30
2023-04-23T16:49:26.880Z,5.50
2023-04-23T16:56:32.107Z,5.20
2023-04-23T16:59:00.390Z,5.32
2023-04-23T17:01:27.884Z,5.35
2023-04-23T17:03:55.572Z,5.50
2023-04-23T17:06:27.507Z,5.38
2023-04-23T17:13:03.136Z,5.28
2023-04-23T17:15:30.887Z,4.80
2023-04-23T17:17:58.342Z,5.68
2023-04-23T17:20:26.057Z,5.35
2023-04-23T17:22:53.477Z,5.50
2023-04-23T17:25:20.917Z,5.22
2023-04-23T17:27:48.292Z,5.82
2023-04-23T17:30:15.862Z,6.10
2023-04-23T17:32:43.304Z,5.45
2023-04-23T17:35:11.222Z,5.93
2023-04-23T17:37:39.181Z,5.20
2023-04-23T17:40:06.881Z,5.68
2023-04-23T17:42:34.414Z,5.80
2023-04-23T17:45:01.785Z,5.05
2023-04-23T17:47:29.186Z,5.85
2023-04-23T17:49:56.771Z,5.75
2023-04-23T17:52:24.144Z,5.78
2023-04-23T17:54:51.635Z,6.28
2023-04-23T17:57:18.958Z,6.15
2023-04-23T17:59:46.300Z,5.68
2023-04-23T18:02:13.706Z,5.90
2023-04-23T18:04:41.119Z,6.03
2023-04-23T18:07:08.647Z,6.32
2023-04-23T18:13:54.574Z,6.28
2023-04-23T18:16:21.997Z,6.47
2023-04-23T18:18:49.546Z,6.50
2023-04-23T18:21:17.754Z,6.28
2023-04-23T18:23:46.218Z,6.38
2023-04-23T18:26:13.799Z,7.30
2023-04-23T18:28:41.496Z,6.72
2023-04-23T18:31:08.962Z,7.18
2023-04-23T18:33:49.538Z,7.28
2023-04-23T18:36:37.330Z,7.32
2023-04-23T18:39:04.886Z,7.28
2023-04-23T18:41:32.582Z,7.35
2023-04-23T18:44:00.465Z,7.35
2023-04-23T18:46:29.752Z,7.80
2023-04-23T18:48:58.484Z,8.18
2023-04-23T18:51:26.930Z,7.22
2023-04-23T18:53:54.797Z,8.18
2023-04-23T18:56:22.294Z,7.85
2023-04-23T18:58:49.825Z,7.72
2023-04-23T19:01:17.385Z,8.07
2023-04-23T19:03:44.868Z,8.02
2023-04-23T19:06:12.396Z,7.65
2023-04-23T19:08:39.745Z,7.90
2023-04-23T19:11:07.128Z,7.88
2023-04-23T19:13:34.709Z,7.68
2023-04-23T19:16:02.272Z,7.93
2023-04-23T19:18:29.712Z,7.55
2023-04-23T19:20:58.305Z,7.30
2023-04-23T19:23:25.872Z,7.38
2023-04-23T19:25:53.244Z,7.32
2023-04-23T19:28:20.967Z,7.68
2023-04-23T19:30:48.589Z,7.45
2023-04-23T19:33:16.102Z,7.72
2023-04-23T19:35:43.749Z,8.18
2023-04-23T19:38:11.297Z,8.10
2023-04-23T19:40:38.721Z,7.85
2023-04-23T19:43:06.124Z,8.10
2023-04-23T19:45:33.624Z,7.40
2023-04-23T19:48:01.239Z,7.18
2023-04-23T19:50:29.691Z,8.00
2023-04-23T19:52:57.051Z,7.53
2023-04-23T19:59:42.986Z,7.75
2023-04-23T20:02:11.086Z,7.57
2023-04-23T20:04:38.897Z,8.00
2023-04-23T20:07:07.086Z,7.95
2023-04-23T20:13:43.045Z,8.20
2023-04-23T20:16:12.428Z,8.30
2023-04-23T20:18:39.872Z,8.70
2023-04-23T20:21:09.093Z,8.38
2023-04-23T20:23:36.552Z,8.20
2023-04-23T20:26:04.161Z,8.38
2023-04-23T20:28:31.692Z,8.30
2023-04-23T20:30:59.077Z,8.05
2023-04-23T20:33:26.999Z,8.07
2023-04-23T20:35:54.663Z,7.72
2023-04-23T20:38:22.043Z,8.30
2023-04-23T20:44:57.820Z,7.82
2023-04-23T20:47:25.227Z,10.00
2023-04-23T20:49:52.618Z,8.90
2023-04-23T20:52:20.020Z,7.93
2023-04-23T20:54:47.390Z,8.18
2023-04-23T20:57:14.827Z,8.30
2023-04-23T20:59:43.232Z,8.15
2023-04-23T21:02:13.048Z,8.52
2023-04-23T21:04:40.804Z,8.23
2023-04-23T21:07:08.387Z,8.18
2023-04-23T21:09:35.906Z,8.98
2023-04-23T21:12:03.281Z,10.10
2023-04-23T21:14:31.772Z,9.70
2023-04-23T21:16:59.167Z,9.25
2023-04-23T21:19:26.716Z,10.00
2023-04-23T21:21:54.106Z,9.60
2023-04-23T21:24:21.598Z,9.77
2023-04-23T21:26:49.057Z,10.48
2023-04-23T21:29:16.714Z,10.40
2023-04-23T21:31:46.399Z,10.82
2023-04-23T21:34:14.756Z,10.43
2023-04-23T21:36:44.811Z,9.45
2023-04-23T21:39:13.285Z,9.73
2023-04-23T21:41:41.020Z,9.85
2023-04-23T21:44:08.878Z,9.52
2023-04-23T21:46:36.352Z,9.90
2023-04-23T21:49:03.753Z,9.93
2023-04-23T21:51:31.182Z,9.80
2023-04-23T21:53:58.554Z,9.18
2023-04-23T22:00:45.130Z,9.75
2023-04-23T22:03:14.821Z,9.48
2023-04-23T22:05:48.016Z,10.05
2023-04-23T22:08:16.576Z,9.45
2023-04-23T22:15:01.834Z,9.55
2023-04-23T22:17:30.641Z,10.63
2023-04-23T22:19:58.121Z,10.48
2023-04-23T22:22:25.755Z,10.75
2023-04-23T22:24:53.116Z,9.60
2023-04-23T22:27:20.573Z,9.95
2023-04-23T22:29:47.933Z,10.23
2023-04-23T22:32:15.444Z,10.77
2023-04-23T22:34:42.938Z,10.13
2023-04-23T22:37:10.328Z,9.35
2023-04-23T22:39:37.696Z,10.23
2023-04-23T22:42:05.101Z,9.40
2023-04-23T22:44:32.439Z,10.30
2023-04-23T22:46:59.881Z,10.15
2023-04-23T22:49:27.171Z,9.73
2023-04-23T22:51:54.692Z,9.77
2023-04-23T22:54:22.112Z,9.88
2023-04-23T23:01:08.587Z,9.10
2023-04-23T23:03:36.141Z,9.18
2023-04-23T23:06:03.533Z,9.90
2023-04-23T23:08:30.921Z,9.32
2023-04-23T23:15:07.810Z,8.82
2023-04-23T23:17:35.290Z,8.43
2023-04-23T23:20:02.852Z,8.30
2023-04-23T23:22:30.478Z,8.68
2023-04-23T23:24:57.922Z,9.00
2023-04-23T23:27:26.003Z,9.10
2023-04-23T23:29:53.581Z,8.35
2023-04-23T23:32:21.171Z,8.27
2023-04-23T23:34:48.638Z,8.63
2023-04-23T23:37:16.724Z,7.97
2023-04-23T23:39:44.311Z,8.05
2023-04-23T23:46:29.451Z,8.50
2023-04-23T23:48:56.986Z,8.30
2023-04-23T23:51:24.339Z,8.05
2023-04-23T23:53:51.831Z,8.75
2023-04-23T23:56:20.082Z,9.40
2023-04-23T23:58:47.803Z,9.65
